KBLM/BLM METAR and TAF weather

Enter ICAO airport designator
Station Type Date Time Source
KBLM METAR 2024/06/15 23:56 UTC NOAA

KBLM 152356Z AUTO 30003KT CLR 26/11 A3006 RMK AO2 SLP177 T02560106 10278 20256 53011 PWINO RVRNO $


Station Type Date Time Source
KBLM Decoded METAR 2024/06/15 23:56 UTC NOAA

Belmar-Farmingdale, NJ, United States (KBLM) 40-11N 074-08W
Jun 15, 2024 - 07:56 PM EDT / 2024.06.15 2356 UTC
Wind: from the WNW (300 degrees) at 3 MPH (3 KT):0
Sky conditions: clear
Temperature: 78.1 F (25.6 C)
Dew Point: 51.1 F (10.6 C)
Relative Humidity: 38%
Pressure (altimeter): 30.06 in. Hg (1017 hPa)
Pressure tendency: 0.03 inches (1.1 hPa) higher than three hours ago
ob: KBLM 152356Z AUTO 30003KT CLR 26/11 A3006 RMK AO2 SLP177 T02560106 10278 20256 53011 PWINO RVRNO
cycle: 0

Station Type Date Time Source
KBLM TAF UTC NOAA

Error!

Example: see airport list